sensor_id;sensor_type;location;lat;lon;timestamp;pressure;altitude;pressure_sealevel;temperature;humidity
21520;BME280;10921;53.614;9.882;2023-05-14T00:00:39;101809.44;;;12.21;69.15
21520;BME280;10921;53.614;9.882;2023-05-14T00:03:05;101789.91;;;12.10;69.54
21520;BME280;10921;53.614;9.882;2023-05-14T00:05:32;101795.97;;;12.12;69.43
21520;BME280;10921;53.614;9.882;2023-05-14T00:07:58;101795.06;;;12.02;69.84
21520;BME280;10921;53.614;9.882;2023-05-14T00:10:26;101809.88;;;12.06;70.06
21520;BME280;10921;53.614;9.882;2023-05-14T00:12:52;101805.75;;;12.02;70.17
21520;BME280;10921;53.614;9.882;2023-05-14T00:15:19;101778.69;;;11.84;70.60
21520;BME280;10921;53.614;9.882;2023-05-14T00:17:45;101803.31;;;11.98;70.48
21520;BME280;10921;53.614;9.882;2023-05-14T00:20:12;101801.03;;;11.94;70.84
21520;BME280;10921;53.614;9.882;2023-05-14T00:22:39;101804.09;;;11.89;70.63
21520;BME280;10921;53.614;9.882;2023-05-14T00:25:06;101801.78;;;11.85;71.00
21520;BME280;10921;53.614;9.882;2023-05-14T00:27:34;101775.81;;;11.64;71.36
21520;BME280;10921;53.614;9.882;2023-05-14T00:30:01;101785.03;;;11.72;71.55
21520;BME280;10921;53.614;9.882;2023-05-14T00:32:27;101793.66;;;11.75;71.45
21520;BME280;10921;53.614;9.882;2023-05-14T00:34:54;101750.97;;;11.42;71.62
21520;BME280;10921;53.614;9.882;2023-05-14T00:37:20;101793.41;;;11.67;71.99
21520;BME280;10921;53.614;9.882;2023-05-14T00:39:47;101779.00;;;11.58;72.01
21520;BME280;10921;53.614;9.882;2023-05-14T00:42:13;101752.19;;;11.38;72.06
21520;BME280;10921;53.614;9.882;2023-05-14T00:44:43;101796.84;;;11.58;72.25
21520;BME280;10921;53.614;9.882;2023-05-14T00:47:09;101781.56;;;11.49;72.60
21520;BME280;10921;53.614;9.882;2023-05-14T00:49:38;101775.63;;;11.45;72.38
21520;BME280;10921;53.614;9.882;2023-05-14T00:52:06;101783.78;;;11.44;72.51
21520;BME280;10921;53.614;9.882;2023-05-14T00:54:33;101735.72;;;11.10;72.72
21520;BME280;10921;53.614;9.882;2023-05-14T00:57:00;101777.31;;;11.35;72.76
21520;BME280;10921;53.614;9.882;2023-05-14T00:59:27;101779.53;;;11.30;73.31
21520;BME280;10921;53.614;9.882;2023-05-14T01:01:54;101733.16;;;11.09;73.19
21520;BME280;10921;53.614;9.882;2023-05-14T01:04:20;101771.75;;;11.27;73.48
21520;BME280;10921;53.614;9.882;2023-05-14T01:07:00;101772.00;;;11.24;73.46
21520;BME280;10921;53.614;9.882;2023-05-14T01:09:43;101754.28;;;11.12;74.25
21520;BME280;10921;53.614;9.882;2023-05-14T01:15:01;101793.97;;;11.16;74.14
21520;BME280;10921;53.614;9.882;2023-05-14T01:17:32;101790.09;;;11.09;74.13
21520;BME280;10921;53.614;9.882;2023-05-14T01:20:03;101787.56;;;11.08;74.78
21520;BME280;10921;53.614;9.882;2023-05-14T01:22:30;101756.63;;;10.83;75.09
21520;BME280;10921;53.614;9.882;2023-05-14T01:24:57;101794.84;;;11.06;75.03
21520;BME280;10921;53.614;9.882;2023-05-14T01:27:43;101787.78;;;11.05;75.41
21520;BME280;10921;53.614;9.882;2023-05-14T01:30:23;101799.31;;;11.05;75.10
21520;BME280;10921;53.614;9.882;2023-05-14T01:32:54;101785.88;;;10.96;75.07
21520;BME280;10921;53.614;9.882;2023-05-14T01:35:24;101776.28;;;10.93;75.35
21520;BME280;10921;53.614;9.882;2023-05-14T01:37:57;101764.63;;;10.83;75.33
21520;BME280;10921;53.614;9.882;2023-05-14T01:40:25;101767.63;;;10.89;75.34
21520;BME280;10921;53.614;9.882;2023-05-14T01:42:52;101790.97;;;10.99;75.63
21520;BME280;10921;53.614;9.882;2023-05-14T01:45:20;101761.94;;;10.83;75.71
21520;BME280;10921;53.614;9.882;2023-05-14T01:47:46;101782.81;;;10.89;75.58
21520;BME280;10921;53.614;9.882;2023-05-14T01:50:13;101785.97;;;10.94;75.57
21520;BME280;10921;53.614;9.882;2023-05-14T01:52:39;101783.44;;;10.92;75.64
21520;BME280;10921;53.614;9.882;2023-05-14T01:55:06;101784.41;;;10.91;75.85
21520;BME280;10921;53.614;9.882;2023-05-14T01:57:33;101785.47;;;10.89;76.42
21520;BME280;10921;53.614;9.882;2023-05-14T02:00:00;101775.03;;;10.86;76.34
21520;BME280;10921;53.614;9.882;2023-05-14T02:02:27;101777.00;;;10.84;76.50
21520;BME280;10921;53.614;9.882;2023-05-14T02:04:53;101776.00;;;10.85;76.79
21520;BME280;10921;53.614;9.882;2023-05-14T02:07:20;101773.97;;;10.77;76.92
21520;BME280;10921;53.614;9.882;2023-05-14T02:09:46;101755.25;;;10.66;76.51
21520;BME280;10921;53.614;9.882;2023-05-14T02:12:13;101778.09;;;10.81;77.18
21520;BME280;10921;53.614;9.882;2023-05-14T02:14:39;101774.19;;;10.74;76.37
21520;BME280;10921;53.614;9.882;2023-05-14T02:17:06;101784.63;;;10.77;76.62
21520;BME280;10921;53.614;9.882;2023-05-14T02:19:32;101753.06;;;10.60;76.53
21520;BME280;10921;53.614;9.882;2023-05-14T02:21:59;101768.97;;;10.73;76.52
21520;BME280;10921;53.614;9.882;2023-05-14T02:24:26;101774.31;;;10.73;76.68
21520;BME280;10921;53.614;9.882;2023-05-14T02:26:52;101763.28;;;10.66;76.61
21520;BME280;10921;53.614;9.882;2023-05-14T02:29:19;101748.94;;;10.56;77.12
21520;BME280;10921;53.614;9.882;2023-05-14T02:31:45;101767.03;;;10.64;77.27
21520;BME280;10921;53.614;9.882;2023-05-14T02:34:12;101768.72;;;10.65;77.44
21520;BME280;10921;53.614;9.882;2023-05-14T02:36:38;101770.66;;;10.63;77.79
21520;BME280;10921;53.614;9.882;2023-05-14T02:39:05;101757.19;;;10.53;77.54
21520;BME280;10921;53.614;9.882;2023-05-14T02:41:31;101772.72;;;10.59;77.75
21520;BME280;10921;53.614;9.882;2023-05-14T02:43:58;101749.53;;;10.48;78.16
21520;BME280;10921;53.614;9.882;2023-05-14T02:46:24;101718.81;;;10.32;77.94
21520;BME280;10921;53.614;9.882;2023-05-14T02:48:51;101746.03;;;10.48;78.10
21520;BME280;10921;53.614;9.882;2023-05-14T02:51:19;101746.75;;;10.50;78.24
21520;BME280;10921;53.614;9.882;2023-05-14T02:53:46;101743.56;;;10.45;78.07
21520;BME280;10921;53.614;9.882;2023-05-14T02:56:13;101754.75;;;10.50;78.14
21520;BME280;10921;53.614;9.882;2023-05-14T02:58:39;101691.09;;;10.10;78.18
21520;BME280;10921;53.614;9.882;2023-05-14T03:01:06;101760.09;;;10.50;78.32
21520;BME280;10921;53.614;9.882;2023-05-14T03:03:34;101752.44;;;10.45;78.01
21520;BME280;10921;53.614;9.882;2023-05-14T03:06:01;101753.06;;;10.49;78.22
21520;BME280;10921;53.614;9.882;2023-05-14T03:08:28;101743.69;;;10.43;78.93
21520;BME280;10921;53.614;9.882;2023-05-14T03:10:54;101748.19;;;10.43;78.84
21520;BME280;10921;53.614;9.882;2023-05-14T03:13:21;101755.97;;;10.46;78.84
21520;BME280;10921;53.614;9.882;2023-05-14T03:15:47;101756.91;;;10.45;79.12
21520;BME280;10921;53.614;9.882;2023-05-14T03:18:14;101758.97;;;10.41;78.58
21520;BME280;10921;53.614;9.882;2023-05-14T03:20:40;101752.66;;;10.42;78.72
21520;BME280;10921;53.614;9.882;2023-05-14T03:23:07;101735.06;;;10.29;79.06
21520;BME280;10921;53.614;9.882;2023-05-14T03:25:36;101653.31;;;9.81;79.27
21520;BME280;10921;53.614;9.882;2023-05-14T03:28:02;101704.78;;;10.06;79.17
21520;BME280;10921;53.614;9.882;2023-05-14T03:30:29;101694.59;;;10.00;78.75
21520;BME280;10921;53.614;9.882;2023-05-14T03:32:56;101708.56;;;10.14;79.17
21520;BME280;10921;53.614;9.882;2023-05-14T03:35:22;101760.78;;;10.41;79.27
21520;BME280;10921;53.614;9.882;2023-05-14T03:37:49;101759.09;;;10.40;79.46
21520;BME280;10921;53.614;9.882;2023-05-14T03:40:18;101751.94;;;10.40;79.54
21520;BME280;10921;53.614;9.882;2023-05-14T03:42:44;101724.13;;;10.20;79.92
21520;BME280;10921;53.614;9.882;2023-05-14T03:45:11;101737.03;;;10.38;80.22
21520;BME280;10921;53.614;9.882;2023-05-14T03:47:37;101719.28;;;10.26;79.67
21520;BME280;10921;53.614;9.882;2023-05-14T03:50:04;101733.50;;;10.37;80.20
21520;BME280;10921;53.614;9.882;2023-05-14T03:52:31;101740.91;;;10.45;79.83
21520;BME280;10921;53.614;9.882;2023-05-14T03:54:57;101740.91;;;10.45;80.00
21520;BME280;10921;53.614;9.882;2023-05-14T03:57:24;101745.91;;;10.49;79.74
21520;BME280;10921;53.614;9.882;2023-05-14T03:59:50;101751.13;;;10.51;79.76
21520;BME280;10921;53.614;9.882;2023-05-14T04:02:17;101741.41;;;10.39;79.88
21520;BME280;10921;53.614;9.882;2023-05-14T04:04:44;101745.78;;;10.51;80.32
21520;BME280;10921;53.614;9.882;2023-05-14T04:07:11;101750.50;;;10.58;80.59
21520;BME280;10921;53.614;9.882;2023-05-14T04:09:37;101725.88;;;10.44;80.43
21520;BME280;10921;53.614;9.882;2023-05-14T04:12:04;101737.78;;;10.51;81.14
21520;BME280;10921;53.614;9.882;2023-05-14T04:14:31;101700.75;;;10.35;80.91
21520;BME280;10921;53.614;9.882;2023-05-14T04:16:57;101724.31;;;10.52;80.88
21520;BME280;10921;53.614;9.882;2023-05-14T04:19:25;101749.56;;;10.82;80.94
21520;BME280;10921;53.614;9.882;2023-05-14T04:21:52;101746.53;;;10.86;80.84
21520;BME280;10921;53.614;9.882;2023-05-14T04:24:18;101727.38;;;10.81;80.51
21520;BME280;10921;53.614;9.882;2023-05-14T04:26:45;101731.22;;;10.88;80.15
21520;BME280;10921;53.614;9.882;2023-05-14T04:29:11;101752.84;;;11.08;80.27
21520;BME280;10921;53.614;9.882;2023-05-14T04:31:38;101708.28;;;10.86;80.00
21520;BME280;10921;53.614;9.882;2023-05-14T04:34:04;101756.22;;;11.21;80.05
21520;BME280;10921;53.614;9.882;2023-05-14T04:36:31;101755.72;;;11.27;79.54
21520;BME280;10921;53.614;9.882;2023-05-14T04:38:57;101744.94;;;11.28;80.03
21520;BME280;10921;53.614;9.882;2023-05-14T04:41:24;101730.72;;;11.28;79.77
21520;BME280;10921;53.614;9.882;2023-05-14T04:43:55;101749.59;;;11.47;79.88
21520;BME280;10921;53.614;9.882;2023-05-14T04:46:21;101736.88;;;11.40;79.50
21520;BME280;10921;53.614;9.882;2023-05-14T04:48:48;101727.88;;;11.41;79.27
21520;BME280;10921;53.614;9.882;2023-05-14T04:51:15;101760.25;;;11.70;79.25
21520;BME280;10921;53.614;9.882;2023-05-14T04:53:42;101698.75;;;11.38;79.01
21520;BME280;10921;53.614;9.882;2023-05-14T04:56:08;101764.34;;;11.85;79.14
21520;BME280;10921;53.614;9.882;2023-05-14T04:58:35;101761.88;;;11.93;78.71
21520;BME280;10921;53.614;9.882;2023-05-14T05:01:03;101728.13;;;11.81;78.70
21520;BME280;10921;53.614;9.882;2023-05-14T05:03:30;101752.31;;;12.11;78.15
21520;BME280;10921;53.614;9.882;2023-05-14T05:05:57;101754.22;;;12.20;77.95
21520;BME280;10921;53.614;9.882;2023-05-14T05:08:23;101753.31;;;12.31;77.86
21520;BME280;10921;53.614;9.882;2023-05-14T05:10:50;101713.63;;;12.15;77.42
21520;BME280;10921;53.614;9.882;2023-05-14T05:13:16;101715.13;;;12.29;76.88
21520;BME280;10921;53.614;9.882;2023-05-14T05:15:43;101730.47;;;12.48;76.58
21520;BME280;10921;53.614;9.882;2023-05-14T05:18:09;101748.16;;;12.69;76.51
21520;BME280;10921;53.614;9.882;2023-05-14T05:20:36;101752.78;;;12.88;75.86
21520;BME280;10921;53.614;9.882;2023-05-14T05:23:02;101748.75;;;13.03;75.18
21520;BME280;10921;53.614;9.882;2023-05-14T05:25:32;101744.56;;;13.11;75.09
21520;BME280;10921;53.614;9.882;2023-05-14T05:27:58;101697.41;;;12.98;74.79
21520;BME280;10921;53.614;9.882;2023-05-14T05:30:25;101754.13;;;13.44;73.77
21520;BME280;10921;53.614;9.882;2023-05-14T05:32:51;101729.84;;;13.45;73.15
21520;BME280;10921;53.614;9.882;2023-05-14T05:35:18;101743.44;;;13.72;72.94
21520;BME280;10921;53.614;9.882;2023-05-14T05:37:45;101749.09;;;13.89;72.01
21520;BME280;10921;53.614;9.882;2023-05-14T05:40:11;101712.38;;;13.80;71.53
21520;BME280;10921;53.614;9.882;2023-05-14T05:42:40;101761.91;;;14.24;71.24
21520;BME280;10921;53.614;9.882;2023-05-14T05:45:07;101729.56;;;14.25;71.32
21520;BME280;10921;53.614;9.882;2023-05-14T05:47:40;101761.75;;;14.64;71.18
21520;BME280;10921;53.614;9.882;2023-05-14T05:50:07;101757.47;;;14.81;69.90
21520;BME280;10921;53.614;9.882;2023-05-14T05:52:34;101750.84;;;15.02;69.03
21520;BME280;10921;53.614;9.882;2023-05-14T05:55:01;101732.38;;;15.17;70.54
21520;BME280;10921;53.614;9.882;2023-05-14T05:57:27;101762.63;;;15.56;68.48
21520;BME280;10921;53.614;9.882;2023-05-14T05:59:54;101760.34;;;15.79;67.86
21520;BME280;10921;53.614;9.882;2023-05-14T06:02:20;101726.88;;;15.81;64.84
21520;BME280;10921;53.614;9.882;2023-05-14T06:04:48;101711.19;;;15.95;64.82
21520;BME280;10921;53.614;9.882;2023-05-14T06:07:14;101740.13;;;16.36;64.97
21520;BME280;10921;53.614;9.882;2023-05-14T06:09:41;101737.75;;;16.59;63.05
21520;BME280;10921;53.614;9.882;2023-05-14T06:12:07;101756.16;;;16.90;61.38
21520;BME280;10921;53.614;9.882;2023-05-14T06:14:34;101728.72;;;16.94;60.51
21520;BME280;10921;53.614;9.882;2023-05-14T06:17:01;101713.25;;;17.04;61.79
21520;BME280;10921;53.614;9.882;2023-05-14T06:19:27;101736.81;;;17.36;61.13
21520;BME280;10921;53.614;9.882;2023-05-14T06:21:54;101718.09;;;17.43;58.27
21520;BME280;10921;53.614;9.882;2023-05-14T06:24:21;101701.59;;;17.54;58.42
21520;BME280;10921;53.614;9.882;2023-05-14T06:26:47;101741.50;;;18.01;57.00
21520;BME280;10921;53.614;9.882;2023-05-14T06:29:17;101733.22;;;18.10;56.70
21520;BME280;10921;53.614;9.882;2023-05-14T06:31:44;101738.44;;;18.36;55.13
21520;BME280;10921;53.614;9.882;2023-05-14T06:34:10;101605.97;;;17.73;54.48
21520;BME280;10921;53.614;9.882;2023-05-14T06:36:37;101715.09;;;18.51;53.76
21520;BME280;10921;53.614;9.882;2023-05-14T06:39:04;101746.25;;;18.94;53.32
21520;BME280;10921;53.614;9.882;2023-05-14T06:41:30;101732.94;;;18.93;52.28
21520;BME280;10921;53.614;9.882;2023-05-14T06:43:57;101757.19;;;19.17;51.87
21520;BME280;10921;53.614;9.882;2023-05-14T06:46:23;101716.84;;;19.00;50.86
21520;BME280;10921;53.614;9.882;2023-05-14T06:48:50;101754.91;;;19.29;50.70
21520;BME280;10921;53.614;9.882;2023-05-14T06:51:16;101725.56;;;19.18;50.88
21520;BME280;10921;53.614;9.882;2023-05-14T06:53:43;101751.81;;;19.40;49.81
21520;BME280;10921;53.614;9.882;2023-05-14T06:56:09;101759.75;;;19.50;50.24
21520;BME280;10921;53.614;9.882;2023-05-14T06:58:36;101703.00;;;19.25;49.88
21520;BME280;10921;53.614;9.882;2023-05-14T07:01:02;101748.88;;;19.58;49.79
21520;BME280;10921;53.614;9.882;2023-05-14T07:03:29;101746.13;;;19.66;49.81
21520;BME280;10921;53.614;9.882;2023-05-14T07:05:55;101759.06;;;19.79;49.37
21520;BME280;10921;53.614;9.882;2023-05-14T07:08:22;101746.88;;;19.83;50.82
21520;BME280;10921;53.614;9.882;2023-05-14T07:10:48;101744.75;;;19.93;49.75
21520;BME280;10921;53.614;9.882;2023-05-14T07:13:15;101746.72;;;20.22;48.43
21520;BME280;10921;53.614;9.882;2023-05-14T07:15:41;101741.13;;;20.46;50.07
21520;BME280;10921;53.614;9.882;2023-05-14T07:18:08;101745.06;;;20.73;48.48
21520;BME280;10921;53.614;9.882;2023-05-14T07:20:34;101720.19;;;20.84;47.54
21520;BME280;10921;53.614;9.882;2023-05-14T07:23:01;101728.47;;;21.12;46.65
21520;BME280;10921;53.614;9.882;2023-05-14T07:25:27;101681.81;;;21.02;45.50
21520;BME280;10921;53.614;9.882;2023-05-14T07:27:54;101730.69;;;21.53;45.43
21520;BME280;10921;53.614;9.882;2023-05-14T07:30:21;101728.34;;;21.71;44.20
21520;BME280;10921;53.614;9.882;2023-05-14T07:32:48;101731.84;;;21.86;43.51
21520;BME280;10921;53.614;9.882;2023-05-14T07:35:14;101711.78;;;21.87;42.15
21520;BME280;10921;53.614;9.882;2023-05-14T07:37:41;101735.44;;;22.08;42.61
21520;BME280;10921;53.614;9.882;2023-05-14T07:40:08;101724.00;;;22.13;41.96
21520;BME280;10921;53.614;9.882;2023-05-14T07:42:35;101728.25;;;22.22;42.54
21520;BME280;10921;53.614;9.882;2023-05-14T07:45:03;101687.75;;;22.05;42.74
21520;BME280;10921;53.614;9.882;2023-05-14T07:47:30;101726.28;;;22.37;42.51
21520;BME280;10921;53.614;9.882;2023-05-14T07:49:57;101719.22;;;22.42;41.70
21520;BME280;10921;53.614;9.882;2023-05-14T07:52:23;101710.03;;;22.50;42.68
21520;BME280;10921;53.614;9.882;2023-05-14T07:57:18;101714.53;;;22.64;40.75
21520;BME280;10921;53.614;9.882;2023-05-14T07:59:46;101710.19;;;22.70;40.17
21520;BME280;10921;53.614;9.882;2023-05-14T08:02:13;101722.00;;;22.84;39.84
21520;BME280;10921;53.614;9.882;2023-05-14T08:04:41;101705.47;;;22.85;39.63
21520;BME280;10921;53.614;9.882;2023-05-14T08:07:08;101705.53;;;22.98;39.51
21520;BME280;10921;53.614;9.882;2023-05-14T08:09:34;101692.13;;;22.97;38.84
21520;BME280;10921;53.614;9.882;2023-05-14T08:12:01;101663.81;;;22.85;39.38
21520;BME280;10921;53.614;9.882;2023-05-14T08:14:27;101699.75;;;23.14;40.39
21520;BME280;10921;53.614;9.882;2023-05-14T08:16:54;101679.22;;;23.12;40.83
21520;BME280;10921;53.614;9.882;2023-05-14T08:19:21;101697.09;;;23.34;37.39
21520;BME280;10921;53.614;9.882;2023-05-14T08:21:49;101716.00;;;23.49;37.71
21520;BME280;10921;53.614;9.882;2023-05-14T08:24:17;101675.72;;;23.38;39.53
21520;BME280;10921;53.614;9.882;2023-05-14T08:26:44;101700.34;;;23.64;38.33
21520;BME280;10921;53.614;9.882;2023-05-14T08:29:10;101638.88;;;23.35;38.06
21520;BME280;10921;53.614;9.882;2023-05-14T08:31:40;101692.19;;;23.77;37.62
21520;BME280;10921;53.614;9.882;2023-05-14T08:34:06;101679.19;;;23.73;37.25
21520;BME280;10921;53.614;9.882;2023-05-14T08:36:32;101678.38;;;23.79;37.61
21520;BME280;10921;53.614;9.882;2023-05-14T08:38:59;101710.66;;;23.95;37.03
21520;BME280;10921;53.614;9.882;2023-05-14T08:41:25;101690.09;;;23.99;38.07
21520;BME280;10921;53.614;9.882;2023-05-14T08:46:31;101676.47;;;24.06;35.53
21520;BME280;10921;53.614;9.882;2023-05-14T08:49:07;101682.13;;;24.17;35.91
21520;BME280;10921;53.614;9.882;2023-05-14T08:51:37;101699.56;;;24.23;36.11
21520;BME280;10921;53.614;9.882;2023-05-14T08:54:04;101672.09;;;24.25;35.72
21520;BME280;10921;53.614;9.882;2023-05-14T08:56:34;101657.00;;;24.29;35.22
21520;BME280;10921;53.614;9.882;2023-05-14T08:59:01;101670.78;;;24.47;35.53
21520;BME280;10921;53.614;9.882;2023-05-14T09:01:27;101676.84;;;24.62;35.08
21520;BME280;10921;53.614;9.882;2023-05-14T09:03:55;101674.50;;;24.72;34.62
21520;BME280;10921;53.614;9.882;2023-05-14T09:06:23;101667.13;;;24.86;35.92
21520;BME280;10921;53.614;9.882;2023-05-14T09:08:49;101625.81;;;24.69;34.01
21520;BME280;10921;53.614;9.882;2023-05-14T09:11:16;101674.81;;;25.09;33.38
21520;BME280;10921;53.614;9.882;2023-05-14T09:13:42;101672.00;;;25.22;33.37
21520;BME280;10921;53.614;9.882;2023-05-14T09:16:08;101658.53;;;25.34;32.87
21520;BME280;10921;53.614;9.882;2023-05-14T09:18:35;101657.09;;;25.63;32.44
21520;BME280;10921;53.614;9.882;2023-05-14T09:21:02;101655.78;;;25.97;31.90
21520;BME280;10921;53.614;9.882;2023-05-14T09:23:31;101654.63;;;26.29;31.65
21520;BME280;10921;53.614;9.882;2023-05-14T09:26:03;101643.22;;;26.57;31.95
21520;BME280;10921;53.614;9.882;2023-05-14T09:28:30;101663.13;;;26.82;30.18
21520;BME280;10921;53.614;9.882;2023-05-14T09:30:56;101643.16;;;27.12;29.46
21520;BME280;10921;53.614;9.882;2023-05-14T09:33:26;101606.94;;;27.10;28.72
21520;BME280;10921;53.614;9.882;2023-05-14T09:35:57;101588.31;;;27.30;28.91
21520;BME280;10921;53.614;9.882;2023-05-14T09:38:29;101645.44;;;27.86;27.25
21520;BME280;10921;53.614;9.882;2023-05-14T09:40:57;101645.56;;;27.91;26.37
21520;BME280;10921;53.614;9.882;2023-05-14T09:43:23;101583.28;;;27.69;26.49
21520;BME280;10921;53.614;9.882;2023-05-14T09:45:53;101615.50;;;27.96;27.24
21520;BME280;10921;53.614;9.882;2023-05-14T09:48:19;101637.78;;;28.70;28.72
21520;BME280;10921;53.614;9.882;2023-05-14T09:50:47;101631.88;;;28.38;25.45
21520;BME280;10921;53.614;9.882;2023-05-14T09:53:14;101627.06;;;28.45;26.09
21520;BME280;10921;53.614;9.882;2023-05-14T09:55:41;101612.41;;;28.51;25.54
21520;BME280;10921;53.614;9.882;2023-05-14T09:58:07;101621.41;;;28.75;27.30
21520;BME280;10921;53.614;9.882;2023-05-14T10:00:34;101619.09;;;28.95;24.75
21520;BME280;10921;53.614;9.882;2023-05-14T10:03:05;101620.41;;;29.21;25.65
21520;BME280;10921;53.614;9.882;2023-05-14T10:05:36;101607.66;;;29.44;24.72
21520;BME280;10921;53.614;9.882;2023-05-14T10:08:12;101612.69;;;29.47;24.05
21520;BME280;10921;53.614;9.882;2023-05-14T10:10:40;101616.19;;;29.59;24.31
21520;BME280;10921;53.614;9.882;2023-05-14T10:13:13;101614.69;;;29.68;24.03
21520;BME280;10921;53.614;9.882;2023-05-14T10:15:43;101613.25;;;29.65;25.15
21520;BME280;10921;53.614;9.882;2023-05-14T10:18:15;101608.28;;;29.62;22.95
21520;BME280;10921;53.614;9.882;2023-05-14T10:20:43;101605.84;;;29.66;22.96
21520;BME280;10921;53.614;9.882;2023-05-14T10:23:13;101592.84;;;29.78;24.42
21520;BME280;10921;53.614;9.882;2023-05-14T10:25:40;101597.34;;;29.84;24.91
21520;BME280;10921;53.614;9.882;2023-05-14T10:28:07;101583.91;;;29.88;24.70
21520;BME280;10921;53.614;9.882;2023-05-14T10:30:34;101601.59;;;30.08;23.52
21520;BME280;10921;53.614;9.882;2023-05-14T10:33:16;101604.13;;;30.32;24.63
21520;BME280;10921;53.614;9.882;2023-05-14T10:35:54;101568.03;;;30.12;22.89
21520;BME280;10921;53.614;9.882;2023-05-14T10:38:24;101600.53;;;30.31;23.51
21520;BME280;10921;53.614;9.882;2023-05-14T10:40:57;101564.06;;;30.02;23.67
21520;BME280;10921;53.614;9.882;2023-05-14T10:43:26;101593.66;;;30.12;23.30
21520;BME280;10921;53.614;9.882;2023-05-14T10:45:57;101584.66;;;30.00;23.76
21520;BME280;10921;53.614;9.882;2023-05-14T10:48:24;101588.41;;;29.94;23.80
21520;BME280;10921;53.614;9.882;2023-05-14T10:50:52;101593.09;;;29.93;24.22
21520;BME280;10921;53.614;9.882;2023-05-14T10:53:18;101582.69;;;29.79;23.85
21520;BME280;10921;53.614;9.882;2023-05-14T10:55:45;101584.25;;;29.74;23.41
21520;BME280;10921;53.614;9.882;2023-05-14T10:58:12;101584.84;;;29.60;22.85
21520;BME280;10921;53.614;9.882;2023-05-14T11:00:40;101571.44;;;29.47;23.69
21520;BME280;10921;53.614;9.882;2023-05-14T11:03:06;101575.03;;;29.35;23.95
21520;BME280;10921;53.614;9.882;2023-05-14T11:05:33;101578.22;;;29.27;24.31
21520;BME280;10921;53.614;9.882;2023-05-14T11:08:04;101573.88;;;29.15;23.71
21520;BME280;10921;53.614;9.882;2023-05-14T11:10:34;101575.56;;;28.87;25.23
21520;BME280;10921;53.614;9.882;2023-05-14T11:13:01;101557.06;;;28.83;24.29
21520;BME280;10921;53.614;9.882;2023-05-14T11:15:27;101556.25;;;28.70;24.23
21520;BME280;10921;53.614;9.882;2023-05-14T11:17:54;101541.38;;;28.55;24.29
21520;BME280;10921;53.614;9.882;2023-05-14T11:20:21;101550.72;;;28.82;23.71
21520;BME280;10921;53.614;9.882;2023-05-14T11:22:48;101552.16;;;28.85;24.28
21520;BME280;10921;53.614;9.882;2023-05-14T11:25:15;101537.47;;;28.79;23.84
21520;BME280;10921;53.614;9.882;2023-05-14T11:27:44;101532.03;;;28.96;24.03
21520;BME280;10921;53.614;9.882;2023-05-14T11:30:18;101497.38;;;28.95;24.34
21520;BME280;10921;53.614;9.882;2023-05-14T11:32:46;101545.63;;;29.36;24.71
21520;BME280;10921;53.614;9.882;2023-05-14T11:35:14;101538.75;;;29.50;25.50
21520;BME280;10921;53.614;9.882;2023-05-14T11:37:42;101491.84;;;29.40;23.36
21520;BME280;10921;53.614;9.882;2023-05-14T11:40:14;101502.50;;;29.70;23.96
21520;BME280;10921;53.614;9.882;2023-05-14T11:42:42;101522.63;;;30.09;23.50
21520;BME280;10921;53.614;9.882;2023-05-14T11:45:12;101502.31;;;30.15;23.55
21520;BME280;10921;53.614;9.882;2023-05-14T11:47:40;101528.13;;;30.53;23.55
21520;BME280;10921;53.614;9.882;2023-05-14T11:50:07;101533.31;;;30.49;23.01
21520;BME280;10921;53.614;9.882;2023-05-14T11:52:39;101530.94;;;30.58;23.15
21520;BME280;10921;53.614;9.882;2023-05-14T11:55:10;101473.13;;;30.14;21.95
21520;BME280;10921;53.614;9.882;2023-05-14T11:57:38;101529.53;;;30.33;22.68
21520;BME280;10921;53.614;9.882;2023-05-14T12:00:09;101469.69;;;30.02;22.49
21520;BME280;10921;53.614;9.882;2023-05-14T12:02:41;101510.59;;;30.37;22.91
21520;BME280;10921;53.614;9.882;2023-05-14T12:05:11;101512.28;;;30.43;22.14
21520;BME280;10921;53.614;9.882;2023-05-14T12:07:38;101513.91;;;30.61;21.47
21520;BME280;10921;53.614;9.882;2023-05-14T12:10:05;101506.47;;;30.61;21.14
21520;BME280;10921;53.614;9.882;2023-05-14T12:12:35;101516.56;;;30.77;22.33
21520;BME280;10921;53.614;9.882;2023-05-14T12:15:12;101510.63;;;30.91;22.38
21520;BME280;10921;53.614;9.882;2023-05-14T12:17:39;101458.88;;;30.66;21.87
21520;BME280;10921;53.614;9.882;2023-05-14T12:20:10;101496.59;;;30.92;23.14
21520;BME280;10921;53.614;9.882;2023-05-14T12:22:37;101489.44;;;30.91;21.85
21520;BME280;10921;53.614;9.882;2023-05-14T12:25:10;101502.09;;;31.14;22.02
21520;BME280;10921;53.614;9.882;2023-05-14T12:27:37;101467.88;;;31.10;22.90
21520;BME280;10921;53.614;9.882;2023-05-14T12:30:05;101495.59;;;31.30;21.16
21520;BME280;10921;53.614;9.882;2023-05-14T12:32:37;101477.72;;;31.38;20.65
21520;BME280;10921;53.614;9.882;2023-05-14T12:35:05;101486.34;;;31.46;20.32
21520;BME280;10921;53.614;9.882;2023-05-14T12:37:33;101478.28;;;31.40;20.40
21520;BME280;10921;53.614;9.882;2023-05-14T12:40:02;101422.66;;;31.11;21.22
21520;BME280;10921;53.614;9.882;2023-05-14T12:42:29;101479.69;;;31.42;20.72
21520;BME280;10921;53.614;9.882;2023-05-14T12:44:56;101457.47;;;31.22;20.65
21520;BME280;10921;53.614;9.882;2023-05-14T12:47:22;101466.88;;;31.26;20.73
21520;BME280;10921;53.614;9.882;2023-05-14T12:49:49;101435.38;;;30.85;21.82
21520;BME280;10921;53.614;9.882;2023-05-14T12:52:16;101436.28;;;30.64;21.45
21520;BME280;10921;53.614;9.882;2023-05-14T12:55:01;101455.66;;;30.74;21.70
21520;BME280;10921;53.614;9.882;2023-05-14T12:57:28;101460.28;;;30.68;22.42
21520;BME280;10921;53.614;9.882;2023-05-14T12:59:55;101426.16;;;30.48;22.46